Terminal Aerodrome Forecast
Issued by NWS

Home | Current Version | Previous Version | Text Only | Print | Product List | Glossary On
Versions: 1 2 3 4 5 6 7 8 9 10 11 12 13 14 15 16 17 18 19 20 21 22 23
000
FTUS43 KABR 090521 AAA
TAFATY
TAF AMD
KATY 090521Z 0905/0924 VRB05KT P6SM SKC
      TEMPO 0910/0913 BKN015
     FM091300 33005KT P6SM BKN050=

USA.gov is the U.S. government's official web portal to all federal, state and local government web resources and services.